アティラウ の空港の天気 - METARとTAF

Atyrau Airport ( UATG / GUW ) - カザフスタン Atyrau
飛行場実況気象(Metar)
観測時間04/21 21:30 ORAT (04/21 16:30 UTC)
風向・風速南西 5m/s
視程10km以上
天気現象
なし
気温9℃
湿度62%
気圧1024hPa
METARUATG 211630Z 22005MPS CAVOK 09/02 Q1024 R14/CLRD70 NOSIG RMK QFE770/1026
過去の天気等 Google飛行場航空写真 Wunderground天気予報

過去48時間のMETAR

飛行場予報(TAF)
発表時間: 4/21 19:31 ORAT (4/21 14:31 UTC)
予報対象時間: 21日19時 ORAT ~ 22日17時 ORAT
風向・風速南西 7m/s
視程10km以上
なし
21日21時 ORAT ~ 21日22時 ORAT に徐々に
風向・風速不定 3m/s
22日11時 ORAT ~ 22日13時 ORAT に徐々に
風向・風速北北西 6m/s
TAF AMD UATG 211431Z 2114/2212 22007MPS CAVOK TX17/2212Z TNM00/2202Z
BECMG 2116/2117 VRB03MPS
BECMG 2206/2208 33006MPS